createdAt,value
2022-12-22T02:04:14.572Z,982.4
2022-12-22T03:05:56.712Z,981.9
2022-12-22T04:07:38.972Z,981.1
2022-12-22T04:10:05.464Z,981.2
2022-12-22T04:12:30.635Z,981.2
2022-12-22T04:14:55.793Z,981.2
2022-12-22T04:17:20.912Z,981.2
2022-12-22T04:19:47.010Z,981
2022-12-22T04:22:13.091Z,981.1
2022-12-22T04:24:39.193Z,981
2022-12-22T04:27:05.301Z,981.1
2022-12-22T04:29:31.386Z,981.1
2022-12-22T04:31:57.483Z,981
2022-12-22T04:34:23.587Z,981
2022-12-22T04:36:49.692Z,980.9
2022-12-22T04:39:15.754Z,981
2022-12-22T04:41:41.873Z,980.9
2022-12-22T04:44:07.963Z,980.8
2022-12-22T04:46:34.074Z,980.8
2022-12-22T04:48:59.170Z,980.9
2022-12-22T04:51:25.256Z,980.8
2022-12-22T04:53:51.360Z,980.8
2022-12-22T04:56:17.453Z,980.8
2022-12-22T04:58:43.538Z,980.6
2022-12-22T05:01:09.640Z,980.7
2022-12-22T05:03:35.734Z,980.7
2022-12-22T05:06:00.862Z,980.7
2022-12-22T05:08:25.981Z,980.7
2022-12-22T05:10:52.074Z,980.7
2022-12-22T05:13:18.165Z,980.7
2022-12-22T05:15:44.248Z,980.6
2022-12-22T05:18:10.349Z,980.7
2022-12-22T05:20:36.432Z,980.7
2022-12-22T05:23:02.537Z,980.6
2022-12-22T05:25:28.633Z,980.6
2022-12-22T05:27:54.737Z,980.7
2022-12-22T05:30:20.817Z,980.8
2022-12-22T05:32:46.930Z,980.7
2022-12-22T05:35:13.025Z,980.8
2022-12-22T05:37:39.122Z,980.9
2022-12-22T05:40:04.222Z,980.9
2022-12-22T05:42:30.315Z,980.8
2022-12-22T05:44:56.446Z,980.9
2022-12-22T05:47:22.526Z,980.9
2022-12-22T05:49:48.596Z,980.8
2022-12-22T05:52:14.739Z,980.8
2022-12-22T05:54:40.791Z,980.9
2022-12-22T05:57:05.927Z,980.9
2022-12-22T05:59:31.038Z,980.9
2022-12-22T06:01:56.194Z,980.8
2022-12-22T06:04:21.264Z,980.9
2022-12-22T06:06:46.454Z,980.8
2022-12-22T06:09:11.509Z,980.8
2022-12-22T06:11:37.601Z,980.7
2022-12-22T06:14:03.701Z,980.7
2022-12-22T06:16:29.800Z,980.7
2022-12-22T06:18:55.867Z,980.6
2022-12-22T06:21:21.967Z,980.7
2022-12-22T06:23:48.084Z,980.7
2022-12-22T06:26:14.176Z,980.6
2022-12-22T06:28:40.268Z,980.7
2022-12-22T06:31:06.347Z,980.6
2022-12-22T06:33:32.518Z,980.6
2022-12-22T06:35:58.566Z,980.7
2022-12-22T06:38:24.658Z,980.6
2022-12-22T06:40:49.744Z,980.7
2022-12-22T06:43:15.913Z,980.7
2022-12-22T06:45:42.050Z,980.7
2022-12-22T06:48:08.133Z,980.7
2022-12-22T06:50:34.215Z,980.6
2022-12-22T06:53:00.357Z,980.6
2022-12-22T06:55:26.404Z,980.7
2022-12-22T06:57:51.527Z,980.6
2022-12-22T07:00:16.732Z,980.5
2022-12-22T07:02:42.700Z,980.6
2022-12-22T07:05:08.760Z,980.6
2022-12-22T07:07:34.903Z,980.7
2022-12-22T07:10:00.985Z,980.7
2022-12-22T07:12:27.042Z,980.7
2022-12-22T07:14:53.191Z,980.7
2022-12-22T07:17:19.271Z,980.8
2022-12-22T07:19:45.356Z,980.8
2022-12-22T07:22:11.504Z,980.8
2022-12-22T07:24:37.516Z,980.9
2022-12-22T07:27:03.610Z,980.9
2022-12-22T07:29:29.713Z,980.9
2022-12-22T07:31:54.908Z,981
2022-12-22T07:34:20.918Z,980.8
2022-12-22T07:36:47.104Z,980.9
2022-12-22T07:39:13.111Z,981
2022-12-22T07:41:39.204Z,981
2022-12-22T07:44:05.370Z,981
2022-12-22T07:46:31.405Z,981
2022-12-22T07:48:56.607Z,981.1
2022-12-22T07:51:21.619Z,981.1
2022-12-22T07:53:47.730Z,981.1
2022-12-22T07:56:13.814Z,981.1
2022-12-22T07:58:39.923Z,981.2
2022-12-22T08:01:06.040Z,981.3
2022-12-22T08:03:32.200Z,981.4
2022-12-22T08:05:58.357Z,981.4
2022-12-22T08:08:24.378Z,981.3
2022-12-22T08:10:50.513Z,981.1
2022-12-22T08:13:16.569Z,980.6
2022-12-22T08:15:42.702Z,981
2022-12-22T08:18:08.809Z,981
2022-12-22T08:20:34.775Z,981
2022-12-22T08:22:59.937Z,981.1
2022-12-22T08:25:25.991Z,981.1
2022-12-22T08:27:52.156Z,981.2
2022-12-22T08:30:18.186Z,981.1
2022-12-22T08:32:44.260Z,981
2022-12-22T08:35:10.421Z,981
2022-12-22T08:37:36.452Z,981.1
2022-12-22T08:40:01.644Z,981.1
2022-12-22T08:42:26.752Z,981.1
2022-12-22T08:44:51.943Z,981.1
2022-12-22T08:47:16.924Z,981.1
2022-12-22T08:49:42.117Z,981.1
2022-12-22T08:52:07.182Z,981.2
2022-12-22T08:54:32.288Z,981.1
2022-12-22T08:56:57.495Z,981.2
2022-12-22T08:59:23.490Z,981.2
2022-12-22T09:01:49.590Z,981.1
2022-12-22T09:06:41.796Z,981.2
2022-12-22T09:09:07.900Z,981.1
2022-12-22T09:11:33.973Z,981.1
2022-12-22T09:14:00.087Z,981.1
2022-12-22T09:16:26.266Z,981.1
2022-12-22T09:18:52.254Z,981.2
2022-12-22T09:21:18.346Z,981.2
2022-12-22T09:23:44.462Z,981.2
2022-12-22T09:26:10.533Z,981.1
2022-12-22T09:28:35.705Z,981.1
2022-12-22T09:31:01.752Z,981.1
2022-12-22T09:33:27.841Z,981.2
2022-12-22T09:35:53.934Z,981.3
2022-12-22T09:38:20.060Z,981.4
2022-12-22T09:40:46.189Z,981.4
2022-12-22T09:43:12.272Z,981.4
2022-12-22T09:45:38.398Z,981.3
2022-12-22T09:48:03.449Z,981.4
2022-12-22T09:50:28.555Z,981.5
2022-12-22T09:52:54.647Z,981.6
2022-12-22T09:55:20.893Z,981.5
2022-12-22T09:57:46.873Z,981.5
2022-12-22T10:00:12.941Z,981.6
2022-12-22T10:02:39.042Z,981.5
2022-12-22T10:05:07.994Z,981.5
2022-12-22T15:48:59.643Z,983.6
2022-12-22T15:51:58.930Z,983.6
2022-12-22T15:54:24.164Z,983.6
2022-12-22T15:56:49.325Z,983.5
2022-12-22T15:59:14.433Z,983.6
2022-12-22T16:01:40.535Z,983.6
2022-12-22T16:04:06.624Z,983.6
2022-12-22T16:06:32.707Z,983.6
2022-12-22T16:08:58.824Z,983.6
2022-12-22T16:11:24.890Z,983.6
2022-12-22T16:13:51.006Z,983.7
2022-12-22T16:16:17.101Z,983.6
2022-12-22T16:18:43.184Z,983.6
2022-12-22T16:21:09.300Z,983.6
2022-12-22T16:23:35.379Z,983.6
2022-12-22T16:26:01.467Z,983.6
2022-12-22T16:28:27.616Z,983.7
2022-12-22T16:30:52.677Z,983.6
2022-12-22T16:33:18.773Z,983.6
2022-12-22T16:35:44.916Z,983.7
2022-12-22T16:38:10.971Z,983.7
2022-12-22T16:40:37.061Z,983.7
2022-12-22T16:47:54.363Z,983.6
2022-12-22T16:50:19.481Z,983.6
2022-12-22T16:52:45.595Z,983.6
2022-12-22T16:55:11.749Z,983.6
2022-12-22T16:57:37.760Z,983.5
2022-12-22T17:00:03.908Z,983.6
2022-12-22T17:02:29.969Z,983.5
2022-12-22T17:04:56.082Z,983.6
2022-12-22T17:07:22.167Z,983.5
2022-12-22T17:09:48.241Z,983.4
2022-12-22T17:12:14.348Z,983.4
2022-12-22T17:14:40.566Z,983.3
2022-12-22T17:17:06.513Z,983.2
2022-12-22T17:19:32.637Z,983.2
2022-12-22T17:21:57.752Z,983.2
2022-12-22T17:24:23.843Z,983.2
2022-12-22T17:26:49.933Z,983.3
2022-12-22T17:29:16.091Z,983.2
2022-12-22T17:31:42.127Z,983.2
2022-12-22T17:34:08.216Z,983.2
2022-12-22T17:36:34.318Z,983.2
2022-12-22T17:38:59.451Z,983.2
2022-12-22T17:41:24.535Z,983.1
2022-12-22T17:43:50.670Z,983.2
2022-12-22T17:46:16.737Z,983.1
2022-12-22T17:48:42.833Z,983.1
2022-12-22T17:51:08.926Z,983
2022-12-22T17:53:35.020Z,983
2022-12-22T17:56:01.120Z,982.9
2022-12-22T17:58:27.244Z,982.9
2022-12-22T18:00:53.320Z,982.8
2022-12-22T18:03:19.413Z,982.8
2022-12-22T18:05:45.521Z,982.9
2022-12-22T18:08:11.598Z,983
2022-12-22T18:10:37.777Z,982.9
2022-12-22T18:13:02.802Z,982.7
2022-12-22T18:15:28.921Z,982.7
2022-12-22T18:17:55.042Z,982.5
2022-12-22T18:20:21.092Z,982.6
2022-12-22T18:22:47.190Z,982.4
2022-12-22T18:25:13.288Z,982.5
2022-12-22T18:27:39.375Z,982.5
2022-12-22T18:30:05.489Z,982.5
2022-12-22T18:32:31.581Z,982.5
2022-12-22T18:34:57.672Z,982.4
2022-12-22T18:37:23.756Z,982.4
2022-12-22T18:39:48.972Z,982.3
2022-12-22T18:42:14.014Z,982.4
2022-12-22T18:44:39.142Z,982.3
2022-12-22T18:47:04.221Z,982.3
2022-12-22T18:49:30.336Z,982.3
2022-12-22T18:51:56.424Z,982.2
2022-12-22T18:54:22.515Z,982.2
2022-12-22T18:56:48.631Z,982.2
2022-12-22T18:59:14.721Z,982.2
2022-12-22T19:01:40.809Z,982.1
2022-12-22T19:04:06.983Z,982.2
2022-12-22T19:06:33.028Z,982.1
2022-12-22T19:08:59.110Z,982.1
2022-12-22T19:11:25.194Z,982.1
2022-12-22T19:13:51.281Z,982.1
2022-12-22T19:16:17.375Z,982
2022-12-22T19:18:42.508Z,982.1
2022-12-22T19:21:08.604Z,982.1
2022-12-22T19:23:34.687Z,981.9
2022-12-22T19:26:00.795Z,982
2022-12-22T19:28:26.882Z,981.9
2022-12-22T19:30:52.968Z,981.9
2022-12-22T19:33:19.079Z,981.8
2022-12-22T19:35:44.195Z,981.7
2022-12-22T19:38:09.324Z,981.7
2022-12-22T19:40:34.422Z,981.7
2022-12-22T19:42:59.555Z,981.7
2022-12-22T19:45:24.742Z,981.7
2022-12-22T19:47:49.782Z,981.6
2022-12-22T19:50:15.875Z,981.6
2022-12-22T19:52:41.967Z,981.6
2022-12-22T19:55:08.077Z,981.6
2022-12-22T19:57:34.157Z,981.5
2022-12-22T20:00:00.260Z,981.5
2022-12-22T20:02:26.353Z,981.5
2022-12-22T20:04:52.444Z,981.5
2022-12-22T20:07:18.533Z,981.5
2022-12-22T20:09:44.645Z,981.5
2022-12-22T20:12:10.725Z,981.5
2022-12-22T20:14:36.865Z,981.5
2022-12-22T20:17:02.913Z,981.5
2022-12-22T20:19:28.026Z,981.4
2022-12-22T20:21:54.150Z,981.4
2022-12-22T20:24:20.252Z,981.4
2022-12-22T20:26:46.312Z,981.4
2022-12-22T20:29:12.418Z,981.5
2022-12-22T20:31:38.501Z,981.3
2022-12-22T20:34:04.606Z,981.4
2022-12-22T20:36:29.760Z,981.3
2022-12-22T20:38:54.827Z,981.3
2022-12-22T20:41:19.977Z,981.3
2022-12-22T20:43:45.089Z,981.2
2022-12-22T20:46:11.227Z,981.2
2022-12-22T20:48:37.323Z,981.2
2022-12-22T20:51:03.356Z,981.2
2022-12-22T20:53:29.447Z,981.2
2022-12-22T20:55:55.562Z,981.1
2022-12-22T20:58:21.684Z,981.2
2022-12-22T21:00:47.726Z,981.1
2022-12-22T21:03:13.823Z,981.1
2022-12-22T21:05:39.935Z,981
2022-12-22T21:08:06.057Z,980.9
2022-12-22T21:10:32.220Z,980.9
2022-12-22T21:12:58.262Z,980.8
2022-12-22T21:15:23.337Z,980.8
2022-12-22T21:17:49.524Z,980.8
2022-12-22T21:20:15.574Z,980.8
2022-12-22T21:22:41.610Z,980.7
2022-12-22T21:25:07.713Z,980.7
2022-12-22T21:27:33.811Z,980.7
2022-12-22T21:29:59.994Z,980.7
2022-12-22T21:32:25.027Z,980.7
2022-12-22T21:34:50.129Z,980.6
2022-12-22T21:37:15.284Z,980.6
2022-12-22T21:39:40.359Z,980.6
2022-12-22T21:42:06.503Z,980.5
2022-12-22T21:44:32.589Z,980.6
2022-12-22T21:46:58.647Z,980.6
2022-12-22T21:49:24.778Z,980.5
2022-12-22T21:51:50.858Z,980.5
2022-12-22T21:54:16.937Z,980.4
2022-12-22T21:56:43.036Z,980.2
2022-12-22T21:59:09.140Z,980.2
2022-12-22T22:01:35.262Z,980.2
2022-12-22T22:04:01.322Z,980.1
2022-12-22T22:13:45.699Z,979.8
2022-12-22T22:16:10.827Z,979.7
2022-12-22T22:18:35.935Z,979.6
2022-12-22T22:21:02.029Z,979.7
2022-12-22T22:23:28.128Z,979.7
2022-12-22T22:25:54.222Z,979.8
2022-12-22T22:28:20.331Z,979.7
2022-12-22T22:30:46.417Z,979.6
2022-12-22T22:33:12.574Z,979.5
2022-12-22T22:35:38.613Z,979.5
2022-12-22T22:38:04.694Z,979.4
2022-12-22T22:40:30.786Z,979.3
2022-12-22T22:42:55.914Z,979.2
2022-12-22T22:45:21.042Z,979.2
2022-12-22T22:47:47.115Z,979.1
2022-12-22T22:50:13.223Z,979.1
2022-12-22T22:52:39.384Z,979.1
2022-12-22T22:55:05.493Z,979
2022-12-22T22:57:31.624Z,979
2022-12-22T22:59:57.607Z,978.9
2022-12-22T23:02:23.698Z,978.9
2022-12-22T23:04:49.813Z,978.9
2022-12-22T23:07:15.882Z,978.8
2022-12-22T23:09:41.971Z,978.7
2022-12-22T23:12:08.079Z,978.7
2022-12-22T23:14:34.161Z,978.7
2022-12-22T23:16:59.275Z,978.7
2022-12-22T23:19:25.367Z,978.6
2022-12-22T23:21:51.471Z,978.6
2022-12-22T23:24:17.566Z,978.5
2022-12-22T23:26:43.711Z,978.5
2022-12-22T23:29:09.749Z,978.5
2022-12-22T23:31:35.836Z,978.5
2022-12-22T23:34:00.976Z,978.5
2022-12-22T23:36:26.093Z,978.4
2022-12-22T23:38:51.215Z,978.4
2022-12-22T23:41:16.322Z,978.4
2022-12-22T23:43:42.417Z,978.4
2022-12-22T23:46:08.503Z,978.3
2022-12-22T23:48:34.612Z,978.3
2022-12-22T23:51:00.697Z,978.2
2022-12-22T23:53:26.920Z,978.3
2022-12-22T23:55:52.901Z,978.2
2022-12-22T23:58:19.073Z,978.2
